createdAt,value
2019-04-22T00:01:20.544Z,56.92
2019-04-22T00:03:52.319Z,57.00
2019-04-22T00:06:30.811Z,56.86
2019-04-22T00:09:15.525Z,56.78
2019-04-22T00:14:01.210Z,57.02
2019-04-22T00:16:32.072Z,56.91
2019-04-22T00:19:07.815Z,56.91
2019-04-22T00:21:27.045Z,56.95
2019-04-22T00:23:53.005Z,57.05
2019-04-22T00:26:24.519Z,57.05
2019-04-22T00:28:52.195Z,57.16
2019-04-22T00:31:19.490Z,57.32
2019-04-22T00:33:38.851Z,57.41
2019-04-22T00:36:16.599Z,57.24
2019-04-22T00:38:44.180Z,57.58
2019-04-22T00:41:14.879Z,57.65
2019-04-22T00:43:39.590Z,58.61
2019-04-22T00:46:04.224Z,58.39
2019-04-22T00:48:34.401Z,58.32
2019-04-22T00:51:05.794Z,58.32
2019-04-22T00:53:32.941Z,58.51
2019-04-22T00:56:07.270Z,58.70
2019-04-22T00:58:30.991Z,58.75
2019-04-22T01:01:01.891Z,59.00
2019-04-22T01:03:29.216Z,59.00
2019-04-22T01:05:55.167Z,59.14
2019-04-22T01:08:34.337Z,59.14
2019-04-22T01:10:52.225Z,58.87
2019-04-22T01:13:21.580Z,58.48
2019-04-22T01:16:04.500Z,58.48
2019-04-22T01:18:13.138Z,58.38
2019-04-22T01:21:00.914Z,57.87
2019-04-22T01:23:05.486Z,58.38
2019-04-22T01:25:30.567Z,58.38
2019-04-22T01:27:57.175Z,58.67
2019-04-22T01:30:21.112Z,58.67
2019-04-22T01:32:41.845Z,58.53
2019-04-22T01:35:18.026Z,58.95
2019-04-22T01:37:52.529Z,58.91
2019-04-22T01:40:24.831Z,58.96
2019-04-22T01:42:58.814Z,58.96
2019-04-22T01:45:26.476Z,59.05
2019-04-22T01:47:49.409Z,59.25
2019-04-22T01:50:24.030Z,59.53
2019-04-22T01:52:46.994Z,59.75
2019-04-22T01:55:17.505Z,59.75
2019-04-22T01:57:34.961Z,59.23
2019-04-22T02:00:00.910Z,59.23
2019-04-22T02:02:39.951Z,59.43
2019-04-22T02:05:04.579Z,59.43
2019-04-22T02:07:32.370Z,59.36
2019-04-22T02:09:56.086Z,59.23
2019-04-22T02:12:25.759Z,60.16
2019-04-22T02:14:50.366Z,60.16
2019-04-22T02:17:26.940Z,59.56
2019-04-22T02:19:53.311Z,59.67
2019-04-22T02:22:24.857Z,59.45
2019-04-22T02:24:43.872Z,59.65
2019-04-22T02:27:17.699Z,59.71
2019-04-22T02:29:44.557Z,60.07
2019-04-22T02:32:24.755Z,60.40
2019-04-22T02:34:39.627Z,60.56
2019-04-22T02:39:34.432Z,60.39
2019-04-22T02:42:10.730Z,60.20
2019-04-22T02:44:35.570Z,60.89
2019-04-22T02:51:53.950Z,60.55
2019-04-22T02:56:48.719Z,60.53
2019-04-22T02:59:26.277Z,60.83
2019-04-22T03:01:54.223Z,60.65
2019-04-22T03:04:20.612Z,60.62
2019-04-22T03:09:14.462Z,60.85
2019-04-22T03:16:46.969Z,60.77
2019-04-22T03:19:02.847Z,60.98
2019-04-22T03:21:27.607Z,61.13
2019-04-22T03:24:12.132Z,61.08
2019-04-22T03:26:39.063Z,61.20
2019-04-22T03:31:44.043Z,61.58
2019-04-22T03:34:49.191Z,61.30
2019-04-22T03:36:58.330Z,61.55
2019-04-22T03:39:04.430Z,61.71
2019-04-22T03:41:27.322Z,62.02
2019-04-22T03:43:54.270Z,62.43
2019-04-22T03:46:11.368Z,62.43
2019-04-22T03:48:47.549Z,62.15
2019-04-22T03:51:16.506Z,61.99
2019-04-22T03:53:33.065Z,61.68
2019-04-22T03:56:02.467Z,62.10
2019-04-22T03:58:28.404Z,61.73
2019-04-22T04:01:09.054Z,61.84
2019-04-22T04:03:19.309Z,62.20
2019-04-22T04:05:57.544Z,61.84
2019-04-22T04:08:26.738Z,61.84
2019-04-22T04:15:34.655Z,61.39
2019-04-22T04:18:11.398Z,61.43
2019-04-22T04:20:56.264Z,61.43
2019-04-22T04:23:30.893Z,60.98
2019-04-22T04:25:44.886Z,61.03
2019-04-22T04:33:05.079Z,60.61
2019-04-22T04:35:44.217Z,60.69
2019-04-22T04:40:26.845Z,60.51
2019-04-22T04:42:54.290Z,60.17
2019-04-22T04:45:33.749Z,60.17
2019-04-22T04:50:12.368Z,60.32
2019-04-22T05:00:34.945Z,59.86
2019-04-22T05:07:36.068Z,59.69
2019-04-22T05:09:59.959Z,59.43
2019-04-22T05:12:33.914Z,59.16
2019-04-22T05:17:18.515Z,59.35
2019-04-22T05:19:43.887Z,58.58
2019-04-22T05:22:28.647Z,58.57
2019-04-22T05:24:45.742Z,58.57
2019-04-22T05:27:16.407Z,58.02
2019-04-22T05:29:43.473Z,58.02
2019-04-22T05:32:01.571Z,57.12
2019-04-22T05:34:29.575Z,56.79
2019-04-22T05:36:52.846Z,55.71
2019-04-22T05:39:24.593Z,55.53
2019-04-22T05:41:48.401Z,55.19
2019-04-22T05:44:37.208Z,54.92
2019-04-22T05:46:47.996Z,54.92
2019-04-22T05:49:28.975Z,54.57
2019-04-22T05:51:42.357Z,54.43
2019-04-22T05:56:38.649Z,52.64
2019-04-22T05:59:03.708Z,52.65
2019-04-22T06:06:22.492Z,51.09
2019-04-22T06:09:02.262Z,50.14
2019-04-22T06:11:28.377Z,50.58
2019-04-22T06:13:48.188Z,49.70
2019-04-22T06:16:26.303Z,48.87
2019-04-22T06:19:01.829Z,48.16
2019-04-22T06:21:20.247Z,48.19
2019-04-22T06:23:46.782Z,46.79
2019-04-22T06:26:26.933Z,46.79
2019-04-22T06:31:16.122Z,46.07
2019-04-22T06:33:40.555Z,46.00
2019-04-22T06:41:04.541Z,45.76
2019-04-22T06:43:33.783Z,45.27
2019-04-22T06:45:51.850Z,44.91
2019-04-22T06:48:23.636Z,44.33
2019-04-22T06:53:17.563Z,44.02
2019-04-22T06:55:45.830Z,44.30
2019-04-22T06:58:15.113Z,44.65
2019-04-22T07:00:41.570Z,43.86
2019-04-22T07:03:28.694Z,44.55
2019-04-22T07:05:41.330Z,42.88
2019-04-22T07:08:18.258Z,41.66
2019-04-22T07:10:44.440Z,40.92
2019-04-22T07:13:01.478Z,41.38
2019-04-22T07:15:46.722Z,41.49
2019-04-22T07:18:03.063Z,40.12
2019-04-22T07:20:30.556Z,38.87
2019-04-22T07:22:54.920Z,38.56
2019-04-22T07:25:23.060Z,38.05
2019-04-22T07:27:45.828Z,37.19
2019-04-22T07:33:04.606Z,37.29
2019-04-22T07:35:14.119Z,36.92
2019-04-22T07:40:13.044Z,35.49
2019-04-22T07:42:36.631Z,35.59
2019-04-22T07:45:08.471Z,35.82
2019-04-22T07:47:40.965Z,34.84
2019-04-22T07:49:59.218Z,34.10
2019-04-22T07:52:31.771Z,34.23
2019-04-22T07:54:52.535Z,34.77
2019-04-22T07:57:28.718Z,31.99
2019-04-22T07:59:59.552Z,32.00
2019-04-22T08:02:16.116Z,32.11
2019-04-22T08:04:57.971Z,31.88
2019-04-22T08:07:18.160Z,32.71
2019-04-22T08:09:55.635Z,32.27
2019-04-22T08:12:14.571Z,31.70
2019-04-22T08:14:40.744Z,31.49
2019-04-22T08:17:32.848Z,31.36
2019-04-22T08:19:36.995Z,31.65
2019-04-22T08:22:01.470Z,30.75
2019-04-22T08:24:39.767Z,29.54
2019-04-22T08:27:00.650Z,29.26
2019-04-22T08:31:56.533Z,29.71
2019-04-22T08:34:20.192Z,29.44
2019-04-22T08:37:12.396Z,29.07
2019-04-22T08:39:21.775Z,29.28
2019-04-22T08:44:10.549Z,29.92
2019-04-22T08:49:05.774Z,28.77
2019-04-22T08:51:40.242Z,28.11
2019-04-22T08:54:09.049Z,29.17
2019-04-22T08:56:37.637Z,27.95
2019-04-22T08:59:12.436Z,28.24
2019-04-22T09:01:38.127Z,28.09
2019-04-22T09:03:58.571Z,27.57
2019-04-22T09:06:47.439Z,27.53
2019-04-22T09:08:54.092Z,28.50
2019-04-22T09:11:20.356Z,28.17
2019-04-22T09:13:50.468Z,27.49
2019-04-22T09:16:24.555Z,27.51
2019-04-22T09:18:46.329Z,27.55
2019-04-22T09:23:44.526Z,27.19
2019-04-22T09:26:09.476Z,27.27
2019-04-22T09:28:37.724Z,27.68
2019-04-22T09:31:02.129Z,28.04
2019-04-22T09:33:27.158Z,26.85
2019-04-22T09:36:07.325Z,27.98
2019-04-22T09:38:31.537Z,26.16
2019-04-22T09:40:52.523Z,27.23
2019-04-22T09:43:24.123Z,26.20
2019-04-22T09:45:47.750Z,26.93
2019-04-22T09:48:16.617Z,26.74
2019-04-22T09:50:47.954Z,27.81
2019-04-22T09:53:14.821Z,27.62
2019-04-22T09:55:37.447Z,27.62
2019-04-22T09:58:14.826Z,27.13
2019-04-22T10:00:42.689Z,27.79
2019-04-22T10:03:10.260Z,27.37
2019-04-22T10:05:38.540Z,25.89
2019-04-22T10:08:02.425Z,25.43
2019-04-22T10:10:29.014Z,26.29
2019-04-22T10:13:00.237Z,24.73
2019-04-22T10:15:26.755Z,25.12
2019-04-22T10:18:14.674Z,25.40
2019-04-22T10:20:24.833Z,25.36
2019-04-22T10:25:19.092Z,25.09
2019-04-22T10:27:47.720Z,25.92
2019-04-22T10:30:16.444Z,24.80
2019-04-22T10:32:38.029Z,25.41
2019-04-22T10:34:52.254Z,24.57
2019-04-22T10:37:16.979Z,23.71
2019-04-22T10:39:52.511Z,24.21
2019-04-22T10:42:11.362Z,24.20
2019-04-22T10:44:37.389Z,25.01
2019-04-22T10:47:04.236Z,23.76
2019-04-22T10:49:30.595Z,24.25
2019-04-22T10:51:56.431Z,24.61
2019-04-22T10:54:23.378Z,24.99
2019-04-22T10:56:50.616Z,25.96
2019-04-22T10:59:16.698Z,24.68
2019-04-22T11:01:42.490Z,24.47
2019-04-22T11:04:09.012Z,24.74
2019-04-22T11:06:42.292Z,24.60
2019-04-22T11:09:06.743Z,24.63
2019-04-22T11:11:44.417Z,24.28
2019-04-22T11:14:01.951Z,24.82
2019-04-22T11:16:27.993Z,23.87
2019-04-22T11:18:53.778Z,25.59
2019-04-22T11:21:19.965Z,24.95
2019-04-22T11:23:46.928Z,25.37
2019-04-22T11:26:12.844Z,25.90
2019-04-22T11:28:38.665Z,25.88
2019-04-22T11:31:04.409Z,24.59
2019-04-22T11:33:30.461Z,23.68
2019-04-22T11:35:57.560Z,25.39
2019-04-22T11:38:24.676Z,26.02
2019-04-22T11:40:53.960Z,25.51
2019-04-22T11:43:19.817Z,25.80
2019-04-22T11:45:46.984Z,26.13
2019-04-22T11:48:13.261Z,25.42
2019-04-22T11:50:40.048Z,26.08
2019-04-22T11:53:07.082Z,25.33
2019-04-22T11:55:32.982Z,25.41
2019-04-22T11:57:59.035Z,26.34
2019-04-22T12:00:27.778Z,26.35
2019-04-22T12:02:54.688Z,25.88
2019-04-22T12:05:21.769Z,25.39
2019-04-22T12:07:48.872Z,25.96
2019-04-22T12:10:28.520Z,26.45
2019-04-22T12:12:44.715Z,25.95
2019-04-22T12:15:10.905Z,26.31
2019-04-22T12:17:38.090Z,26.41
2019-04-22T12:20:08.711Z,25.72
2019-04-22T12:22:35.468Z,26.03
2019-04-22T12:25:06.270Z,26.89
2019-04-22T12:27:32.648Z,27.27
2019-04-22T12:29:58.791Z,27.21
2019-04-22T12:32:25.385Z,26.93
2019-04-22T12:34:51.433Z,26.26
2019-04-22T12:37:27.683Z,26.42
2019-04-22T12:39:45.374Z,26.43
2019-04-22T12:42:11.299Z,27.03
2019-04-22T12:44:39.064Z,27.33
2019-04-22T12:47:06.157Z,27.58
2019-04-22T12:49:35.579Z,26.28
2019-04-22T12:52:01.131Z,26.42
2019-04-22T12:54:27.052Z,26.75
2019-04-22T12:56:53.374Z,27.89
2019-04-22T12:59:19.399Z,27.81
2019-04-22T13:01:45.213Z,27.19
2019-04-22T13:04:14.783Z,26.94
2019-04-22T13:06:39.904Z,26.62
2019-04-22T13:09:08.395Z,28.01
2019-04-22T13:11:36.505Z,28.30
2019-04-22T13:14:03.049Z,27.85
2019-04-22T13:16:29.360Z,27.40
2019-04-22T13:19:01.177Z,27.24
2019-04-22T13:21:23.029Z,27.65
2019-04-22T13:23:48.946Z,28.26
2019-04-22T13:26:15.084Z,27.96
2019-04-22T13:28:41.201Z,27.74
2019-04-22T13:31:07.760Z,27.65
2019-04-22T13:33:34.690Z,27.13
2019-04-22T13:36:01.679Z,28.22
2019-04-22T13:38:29.070Z,28.23
2019-04-22T13:41:07.074Z,27.75
2019-04-22T13:43:22.929Z,28.10
2019-04-22T13:45:49.857Z,28.07
2019-04-22T13:48:33.600Z,28.41
2019-04-22T13:51:21.950Z,28.96
2019-04-22T13:54:07.457Z,27.82
2019-04-22T13:56:02.733Z,27.97
2019-04-22T13:58:18.531Z,27.46
2019-04-22T14:00:36.426Z,27.70
2019-04-22T14:03:22.390Z,27.76
2019-04-22T14:05:53.188Z,28.07
2019-04-22T14:08:19.941Z,28.73
2019-04-22T14:10:45.851Z,28.46
2019-04-22T14:13:12.031Z,29.04
2019-04-22T14:15:38.182Z,29.22
2019-04-22T14:18:07.175Z,29.99
2019-04-22T14:20:34.428Z,30.29
2019-04-22T14:23:02.688Z,30.09
2019-04-22T14:25:28.521Z,30.61
2019-04-22T14:28:01.248Z,30.75
2019-04-22T14:30:22.110Z,30.57
2019-04-22T14:32:47.964Z,31.28
2019-04-22T14:35:15.293Z,31.78
2019-04-22T14:37:42.481Z,31.94
2019-04-22T14:40:09.452Z,32.14
2019-04-22T14:42:55.992Z,31.70
2019-04-22T14:45:30.089Z,32.61
2019-04-22T14:47:59.440Z,32.33
2019-04-22T14:50:21.821Z,32.42
2019-04-22T14:52:52.377Z,32.05
2019-04-22T14:55:06.076Z,32.56
2019-04-22T14:57:26.643Z,32.52
2019-04-22T14:59:51.420Z,32.30
2019-04-22T15:02:19.444Z,32.72
2019-04-22T15:04:45.935Z,33.08
2019-04-22T15:07:16.844Z,33.60
2019-04-22T15:09:43.960Z,33.24
2019-04-22T15:12:18.462Z,32.88
2019-04-22T15:14:37.595Z,32.90
2019-04-22T15:17:22.922Z,33.26
2019-04-22T15:19:51.937Z,32.96
2019-04-22T15:22:18.752Z,32.81
2019-04-22T15:24:45.035Z,32.96
2019-04-22T15:27:10.948Z,32.59
2019-04-22T15:29:36.729Z,32.53
2019-04-22T15:32:03.217Z,32.55
2019-04-22T15:34:30.555Z,32.75
2019-04-22T15:36:57.974Z,32.97
2019-04-22T15:39:25.075Z,32.17
2019-04-22T15:42:00.362Z,32.10
2019-04-22T15:44:19.765Z,32.22
2019-04-22T15:46:47.044Z,31.99
2019-04-22T15:49:13.812Z,32.72
2019-04-22T15:51:40.809Z,32.78
2019-04-22T15:54:07.691Z,32.99
2019-04-22T15:56:34.989Z,32.80
2019-04-22T15:59:01.926Z,32.81
2019-04-22T16:01:33.654Z,32.32
2019-04-22T16:03:56.589Z,33.02
2019-04-22T16:06:22.363Z,33.50
2019-04-22T16:08:48.145Z,33.40
2019-04-22T16:11:14.070Z,33.25
2019-04-22T16:13:40.186Z,33.08
2019-04-22T16:16:06.950Z,33.61
2019-04-22T16:18:32.822Z,35.12
2019-04-22T16:21:00.087Z,36.58
2019-04-22T16:23:32.061Z,37.34
2019-04-22T16:26:01.033Z,37.63
2019-04-22T16:28:27.208Z,37.84
2019-04-22T16:30:53.295Z,38.48
2019-04-22T16:33:19.438Z,38.71
2019-04-22T16:35:46.651Z,39.03
2019-04-22T16:38:12.847Z,39.21
2019-04-22T16:40:38.951Z,39.38
2019-04-22T16:43:07.730Z,39.42
2019-04-22T16:45:33.602Z,39.60
2019-04-22T16:48:00.039Z,40.27
2019-04-22T16:50:27.204Z,40.57
2019-04-22T16:52:54.403Z,40.46
2019-04-22T16:55:21.022Z,41.08
2019-04-22T16:57:48.263Z,41.39
2019-04-22T17:00:14.514Z,41.87
2019-04-22T17:03:00.637Z,42.03
2019-04-22T17:05:31.516Z,42.21
2019-04-22T17:07:58.245Z,42.61
2019-04-22T17:10:24.203Z,42.94
2019-04-22T17:12:59.567Z,43.11
2019-04-22T17:15:18.907Z,42.95
2019-04-22T17:17:45.674Z,43.49
2019-04-22T17:20:11.700Z,43.60
2019-04-22T17:22:37.744Z,43.82
2019-04-22T17:25:06.569Z,44.15
2019-04-22T17:27:34.500Z,44.59
2019-04-22T17:30:00.188Z,45.01
2019-04-22T17:32:27.293Z,45.17
2019-04-22T17:34:53.889Z,45.54
2019-04-22T17:37:24.675Z,45.96
2019-04-22T17:40:04.713Z,46.28
2019-04-22T17:42:39.942Z,46.82
2019-04-22T17:45:27.118Z,47.26
2019-04-22T17:48:12.865Z,47.65
2019-04-22T17:50:44.413Z,48.10
2019-04-22T17:53:13.702Z,48.58
2019-04-22T17:55:44.450Z,48.93
2019-04-22T17:58:08.059Z,49.37
2019-04-22T18:00:29.792Z,49.62
2019-04-22T18:02:55.987Z,50.00
2019-04-22T18:05:13.012Z,50.51
2019-04-22T18:07:54.893Z,50.66
2019-04-22T18:13:01.876Z,51.00
2019-04-22T18:15:19.391Z,51.25
2019-04-22T18:17:55.570Z,51.32
2019-04-22T18:20:14.429Z,51.46
2019-04-22T18:22:37.202Z,51.70
2019-04-22T18:25:03.857Z,51.87
2019-04-22T18:27:48.990Z,52.15
2019-04-22T18:30:01.582Z,52.49
2019-04-22T18:32:22.822Z,52.57
2019-04-22T18:34:55.543Z,52.67
2019-04-22T18:37:19.964Z,52.73
2019-04-22T18:39:58.399Z,53.01
2019-04-22T18:42:21.753Z,53.29
2019-04-22T18:44:55.664Z,53.33
2019-04-22T18:47:14.517Z,53.49
2019-04-22T18:49:43.410Z,53.75
2019-04-22T18:52:17.843Z,53.89
2019-04-22T18:54:45.800Z,54.17
2019-04-22T18:57:15.936Z,53.79
2019-04-22T18:59:33.614Z,54.01
2019-04-22T19:02:02.106Z,54.13
2019-04-22T19:04:31.713Z,54.43
2019-04-22T19:07:17.199Z,54.25
2019-04-22T19:09:43.969Z,54.43
2019-04-22T19:12:15.190Z,54.67
2019-04-22T19:14:40.839Z,54.73
2019-04-22T19:17:13.812Z,55.02
2019-04-22T19:19:38.385Z,55.40
2019-04-22T19:22:02.599Z,55.17
2019-04-22T19:24:22.852Z,55.58
2019-04-22T19:29:20.357Z,56.16
2019-04-22T19:31:51.191Z,56.29
2019-04-22T19:34:16.452Z,56.21
2019-04-22T19:36:47.000Z,56.59
2019-04-22T19:39:10.358Z,56.76
2019-04-22T19:41:45.454Z,57.10
2019-04-22T19:44:08.460Z,56.90
2019-04-22T19:46:35.306Z,56.96
2019-04-22T19:49:07.887Z,56.92
2019-04-22T19:51:44.113Z,56.92
2019-04-22T19:53:57.731Z,57.23
2019-04-22T19:56:20.669Z,57.44
2019-04-22T19:58:47.459Z,57.57
2019-04-22T20:01:23.666Z,57.63
2019-04-22T20:04:12.140Z,57.51
2019-04-22T20:06:33.901Z,57.91
2019-04-22T20:08:59.591Z,57.99
2019-04-22T20:11:28.398Z,58.26
2019-04-22T20:14:01.341Z,58.53
2019-04-22T20:16:20.241Z,58.97
2019-04-22T20:18:52.389Z,58.76
2019-04-22T20:21:22.414Z,59.39
2019-04-22T20:23:39.552Z,59.39
2019-04-22T20:26:07.355Z,59.57
2019-04-22T20:28:41.728Z,59.58
2019-04-22T20:31:11.332Z,60.24
2019-04-22T20:33:46.224Z,60.38
2019-04-22T20:36:23.228Z,60.63
2019-04-22T20:38:32.554Z,60.53
2019-04-22T20:40:58.570Z,60.56
2019-04-22T20:43:35.632Z,60.90
2019-04-22T20:46:02.400Z,61.19
2019-04-22T20:48:10.273Z,61.36
2019-04-22T20:50:54.624Z,61.68
2019-04-22T20:53:44.865Z,61.49
2019-04-22T20:56:05.537Z,61.50
2019-04-22T20:58:37.869Z,61.20
2019-04-22T21:00:56.921Z,61.60
2019-04-22T21:03:23.759Z,61.83
2019-04-22T21:05:50.439Z,61.97
2019-04-22T21:08:28.926Z,62.09
2019-04-22T21:10:46.656Z,61.84
2019-04-22T21:13:17.079Z,61.58
2019-04-22T21:15:54.622Z,61.85
2019-04-22T21:18:13.449Z,62.17
2019-04-22T21:20:51.534Z,61.94
2019-04-22T21:23:14.305Z,61.92
2019-04-22T21:25:34.109Z,61.79
2019-04-22T21:28:09.606Z,62.00
2019-04-22T21:30:40.361Z,61.89
2019-04-22T21:32:58.248Z,62.06
2019-04-22T21:35:48.634Z,62.41
2019-04-22T21:38:04.338Z,62.28
2019-04-22T21:40:27.457Z,62.44
2019-04-22T21:42:59.779Z,62.45
2019-04-22T21:45:21.662Z,62.57
2019-04-22T21:48:04.523Z,62.89
2019-04-22T21:52:59.463Z,63.19
2019-04-22T21:55:23.705Z,63.28
2019-04-22T21:58:05.299Z,63.27
2019-04-22T22:00:32.780Z,63.63
2019-04-22T22:02:54.534Z,63.30
2019-04-22T22:05:12.523Z,63.53
2019-04-22T22:07:28.671Z,63.45
2019-04-22T22:10:12.303Z,63.27
2019-04-22T22:12:42.613Z,63.38
2019-04-22T22:15:08.419Z,63.43
2019-04-22T22:17:30.718Z,63.33
2019-04-22T22:19:57.556Z,63.50
2019-04-22T22:25:04.209Z,63.08
2019-04-22T22:27:25.326Z,63.08
2019-04-22T22:30:16.389Z,63.36
2019-04-22T22:32:26.043Z,63.20
2019-04-22T22:34:52.077Z,63.05
2019-04-22T22:37:08.480Z,63.11
2019-04-22T22:39:36.467Z,62.93
2019-04-22T22:41:52.323Z,62.69
2019-04-22T22:44:27.308Z,62.20
2019-04-22T22:47:03.243Z,62.19
2019-04-22T22:49:33.183Z,61.76
2019-04-22T22:52:16.739Z,61.74
2019-04-22T22:54:32.995Z,61.52
2019-04-22T22:57:01.840Z,61.14
2019-04-22T22:59:31.271Z,61.07
2019-04-22T23:01:52.836Z,60.49
2019-04-22T23:04:23.377Z,60.49
2019-04-22T23:06:50.314Z,60.41
2019-04-22T23:09:14.553Z,60.17
2019-04-22T23:11:57.547Z,59.82
2019-04-22T23:14:17.200Z,59.77
2019-04-22T23:16:31.186Z,59.65
2019-04-22T23:19:02.024Z,59.59
2019-04-22T23:21:37.446Z,59.54
2019-04-22T23:24:16.160Z,59.43
2019-04-22T23:26:42.058Z,59.20
2019-04-22T23:29:13.432Z,59.43
2019-04-22T23:31:39.965Z,59.44
2019-04-22T23:34:15.874Z,59.41
2019-04-22T23:36:55.881Z,59.29
2019-04-22T23:39:30.680Z,58.67
2019-04-22T23:41:58.462Z,58.67
2019-04-22T23:46:48.879Z,58.65
2019-04-22T23:49:17.408Z,59.02
2019-04-22T23:51:55.364Z,58.96
2019-04-22T23:54:20.841Z,59.00
2019-04-22T23:56:42.278Z,59.12
2019-04-22T23:59:26.296Z,59.28
